createdAt,value
2018-03-31T00:01:12.807Z,14.83
2018-03-31T00:05:46.311Z,15.87
2018-03-31T00:10:19.099Z,17.20
2018-03-31T00:14:51.857Z,17.00
2018-03-31T00:19:25.242Z,16.93
2018-03-31T00:23:57.976Z,19.30
2018-03-31T00:28:30.756Z,13.27
2018-03-31T00:33:03.482Z,14.53
2018-03-31T00:37:36.648Z,17.77
2018-03-31T00:42:09.526Z,23.33
2018-03-31T00:46:43.064Z,20.87
2018-03-31T00:51:15.802Z,19.00
2018-03-31T00:55:48.563Z,17.63
2018-03-31T01:00:21.428Z,18.30
2018-03-31T01:04:55.048Z,24.27
2018-03-31T01:09:28.556Z,21.10
2018-03-31T01:14:02.086Z,11.73
2018-03-31T01:18:35.631Z,21.07
2018-03-31T01:23:08.484Z,20.70
2018-03-31T01:27:42.616Z,15.90
2018-03-31T01:32:16.164Z,18.20
2018-03-31T01:36:48.937Z,18.20
2018-03-31T01:41:22.464Z,18.23
2018-03-31T01:45:55.183Z,19.70
2018-03-31T01:50:27.939Z,16.80
2018-03-31T01:55:02.176Z,23.70
2018-03-31T01:59:34.945Z,12.20
2018-03-31T02:04:07.743Z,12.90
2018-03-31T02:08:40.519Z,13.87
2018-03-31T02:13:13.280Z,22.87
2018-03-31T02:17:46.042Z,18.23
2018-03-31T02:22:19.568Z,14.67
2018-03-31T02:26:53.121Z,13.03
2018-03-31T02:31:25.839Z,22.80
2018-03-31T02:35:58.587Z,21.97
2018-03-31T02:40:31.501Z,17.97
2018-03-31T02:45:04.265Z,20.03
2018-03-31T02:49:37.798Z,15.73
2018-03-31T02:54:10.576Z,18.63
2018-03-31T02:58:44.153Z,21.90
2018-03-31T03:03:16.916Z,24.97
2018-03-31T03:07:49.692Z,18.40
2018-03-31T03:12:23.253Z,14.33
2018-03-31T03:16:56.037Z,11.37
2018-03-31T03:21:28.820Z,13.30
2018-03-31T03:26:01.601Z,13.97
2018-03-31T03:30:34.366Z,16.40
2018-03-31T03:35:07.129Z,15.37
2018-03-31T03:39:39.981Z,13.50
2018-03-31T03:44:13.543Z,15.60
2018-03-31T03:48:46.295Z,17.43
2018-03-31T03:53:19.863Z,31.80
2018-03-31T03:57:52.624Z,12.03
2018-03-31T04:02:25.409Z,17.50
2018-03-31T04:06:58.976Z,28.53
2018-03-31T04:11:31.817Z,16.77
2018-03-31T04:16:04.576Z,19.67
2018-03-31T04:20:37.309Z,16.73
2018-03-31T04:25:10.845Z,19.17
2018-03-31T04:29:43.562Z,19.67
2018-03-31T04:34:16.414Z,15.70
2018-03-31T04:38:49.935Z,16.77
2018-03-31T04:43:23.457Z,17.07
2018-03-31T04:47:56.219Z,16.60
2018-03-31T04:52:28.987Z,16.13
2018-03-31T04:57:01.832Z,22.30
2018-03-31T05:01:35.400Z,21.90
2018-03-31T05:06:08.188Z,28.03
2018-03-31T05:10:40.952Z,16.40
2018-03-31T05:15:13.685Z,16.67
2018-03-31T05:19:46.539Z,21.03
2018-03-31T05:24:20.078Z,28.17
2018-03-31T05:28:53.468Z,23.77
2018-03-31T05:33:27.030Z,24.90
2018-03-31T05:37:59.774Z,28.00
2018-03-31T05:42:33.306Z,22.10
2018-03-31T05:47:06.644Z,23.73
2018-03-31T05:51:39.425Z,22.63
2018-03-31T05:56:12.290Z,22.90
2018-03-31T06:00:46.574Z,25.90
2018-03-31T06:05:19.312Z,28.93
2018-03-31T06:09:52.856Z,19.57
2018-03-31T06:14:25.668Z,23.97
2018-03-31T06:18:58.428Z,22.97
2018-03-31T06:23:32.873Z,21.00
2018-03-31T06:28:05.864Z,23.43
2018-03-31T06:32:39.383Z,20.90
2018-03-31T06:37:12.912Z,20.27
2018-03-31T06:41:45.727Z,20.63
2018-03-31T06:46:18.462Z,19.53
2018-03-31T06:50:51.232Z,17.80
2018-03-31T06:55:26.097Z,20.03
2018-03-31T06:59:58.849Z,18.90
2018-03-31T07:04:31.636Z,17.63
2018-03-31T07:09:04.407Z,19.20
2018-03-31T07:13:37.930Z,19.80
2018-03-31T07:18:11.459Z,19.20
2018-03-31T07:22:44.221Z,18.67
2018-03-31T07:27:17.004Z,19.57
2018-03-31T07:31:49.776Z,19.67
2018-03-31T07:36:22.551Z,19.47
2018-03-31T07:40:55.368Z,19.13
2018-03-31T07:45:28.757Z,17.87
2018-03-31T07:50:01.543Z,18.70
2018-03-31T07:54:34.316Z,20.67
2018-03-31T07:59:07.129Z,16.50
2018-03-31T08:03:40.646Z,16.90
2018-03-31T08:08:14.192Z,18.47
2018-03-31T08:12:46.972Z,18.07
2018-03-31T08:17:19.866Z,18.07
2018-03-31T08:21:53.366Z,17.43
2018-03-31T08:26:27.508Z,19.57
2018-03-31T08:31:01.026Z,20.40
2018-03-31T08:35:33.811Z,19.63
2018-03-31T08:40:07.434Z,18.30
2018-03-31T08:44:41.781Z,19.60
2018-03-31T08:49:14.575Z,18.90
2018-03-31T08:53:47.332Z,19.60
2018-03-31T08:58:20.088Z,21.83
2018-03-31T09:02:52.842Z,23.43
2018-03-31T09:07:26.379Z,21.17
2018-03-31T09:11:59.152Z,19.73
2018-03-31T09:16:32.896Z,20.43
2018-03-31T09:21:05.780Z,22.67
2018-03-31T09:25:38.716Z,20.93
2018-03-31T09:30:12.421Z,21.07
2018-03-31T09:34:45.590Z,21.57
2018-03-31T09:39:19.962Z,21.77
2018-03-31T09:43:52.708Z,23.67
2018-03-31T09:48:25.489Z,23.10
2018-03-31T09:52:58.222Z,21.70
2018-03-31T09:57:32.653Z,20.57
2018-03-31T10:02:06.266Z,19.57
2018-03-31T10:06:39.839Z,17.97
2018-03-31T10:11:12.563Z,16.43
2018-03-31T10:15:45.890Z,15.90
2018-03-31T10:20:18.721Z,16.30
2018-03-31T10:24:52.553Z,18.20
2018-03-31T10:29:25.619Z,15.80
2018-03-31T10:33:58.472Z,15.03
2018-03-31T10:38:32.044Z,13.50
2018-03-31T10:43:04.815Z,10.65
2018-03-31T10:47:39.076Z,9.73
2018-03-31T10:52:12.000Z,8.77
2018-03-31T10:56:44.765Z,7.90
2018-03-31T11:01:17.553Z,7.20
2018-03-31T11:05:51.105Z,8.73
2018-03-31T11:10:23.864Z,11.18
2018-03-31T11:14:58.758Z,8.05
2018-03-31T11:19:31.532Z,9.63
2018-03-31T11:24:04.277Z,7.80
2018-03-31T11:28:37.094Z,7.60
2018-03-31T11:33:10.598Z,7.78
2018-03-31T11:37:43.513Z,6.57
2018-03-31T11:42:17.048Z,6.22
2018-03-31T11:46:49.817Z,6.20
2018-03-31T11:51:23.342Z,5.25
2018-03-31T11:55:56.876Z,6.53
2018-03-31T12:00:29.689Z,5.60
2018-03-31T12:05:02.415Z,4.82
2018-03-31T12:09:36.690Z,5.50
2018-03-31T12:14:09.455Z,5.43
2018-03-31T12:18:43.014Z,4.87
2018-03-31T12:23:15.751Z,3.28
2018-03-31T12:27:49.287Z,3.50
2018-03-31T12:32:23.425Z,2.67
2018-03-31T12:36:56.949Z,4.22
2018-03-31T12:41:29.761Z,4.37
2018-03-31T12:46:03.132Z,4.30
2018-03-31T12:50:36.656Z,8.43
2018-03-31T12:55:09.476Z,5.72
2018-03-31T12:59:42.251Z,4.97
2018-03-31T13:04:15.868Z,4.50
2018-03-31T13:08:49.401Z,4.65
2018-03-31T13:13:22.211Z,4.62
2018-03-31T13:17:54.931Z,4.85
2018-03-31T13:22:28.360Z,5.53
2018-03-31T13:27:01.127Z,3.72
2018-03-31T13:31:34.423Z,3.30
2018-03-31T13:36:07.293Z,4.12
2018-03-31T13:40:40.792Z,3.60
2018-03-31T13:45:13.538Z,3.42
2018-03-31T13:49:46.314Z,3.33
2018-03-31T13:54:19.441Z,2.80
2018-03-31T13:58:52.301Z,2.92
2018-03-31T14:03:25.819Z,2.80
2018-03-31T14:07:59.368Z,2.97
2018-03-31T14:12:32.140Z,2.50
2018-03-31T14:17:05.616Z,3.03
2018-03-31T14:21:39.152Z,2.60
2018-03-31T14:26:12.676Z,2.65
2018-03-31T14:30:46.444Z,2.58
2018-03-31T14:35:19.398Z,3.80
2018-03-31T14:39:52.917Z,2.60
2018-03-31T14:44:25.714Z,4.70
2018-03-31T14:48:58.437Z,4.12
2018-03-31T14:53:31.206Z,3.12
2018-03-31T14:58:04.086Z,3.72
2018-03-31T15:02:37.796Z,3.05
2018-03-31T15:07:10.520Z,3.67
2018-03-31T15:11:44.257Z,3.65
2018-03-31T15:16:17.065Z,3.55
2018-03-31T15:20:49.807Z,4.45
2018-03-31T15:25:22.613Z,3.55
2018-03-31T15:29:56.193Z,2.60
2018-03-31T15:34:29.676Z,4.75
2018-03-31T15:39:02.465Z,4.25
2018-03-31T15:43:35.218Z,3.40
2018-03-31T15:48:08.025Z,7.53
2018-03-31T15:52:41.540Z,5.95
2018-03-31T15:57:15.121Z,4.20
2018-03-31T16:01:47.941Z,5.87
2018-03-31T16:06:20.691Z,4.70
2018-03-31T16:10:53.557Z,3.72
2018-03-31T16:15:27.079Z,5.03
2018-03-31T16:19:59.844Z,2.12
2018-03-31T16:24:33.362Z,2.70
2018-03-31T16:29:07.125Z,3.65
2018-03-31T16:33:39.900Z,4.70
2018-03-31T16:38:13.514Z,3.37
2018-03-31T16:42:46.301Z,4.90
2018-03-31T16:47:19.808Z,4.37
2018-03-31T16:51:53.184Z,4.47
2018-03-31T16:56:25.912Z,4.87
2018-03-31T17:00:58.664Z,5.00
2018-03-31T17:05:31.523Z,4.90
2018-03-31T17:10:05.067Z,4.00
2018-03-31T17:14:37.935Z,3.93
2018-03-31T17:19:11.750Z,4.37
2018-03-31T17:23:45.287Z,7.70
2018-03-31T17:28:18.067Z,6.63
2018-03-31T17:32:51.631Z,9.27
2018-03-31T17:37:25.233Z,7.03
2018-03-31T17:41:58.098Z,4.20
2018-03-31T17:46:31.605Z,5.83
2018-03-31T17:51:05.143Z,7.50
2018-03-31T17:55:38.024Z,4.30
2018-03-31T18:00:11.591Z,4.30
2018-03-31T18:04:44.438Z,6.67
2018-03-31T18:09:18.000Z,4.50
2018-03-31T18:13:50.724Z,5.47
2018-03-31T18:18:23.502Z,8.80
2018-03-31T18:22:57.167Z,6.03
2018-03-31T18:27:30.741Z,5.23
2018-03-31T18:32:03.509Z,4.20
2018-03-31T18:36:36.373Z,18.90
2018-03-31T18:41:09.899Z,11.17
2018-03-31T18:45:43.439Z,3.40
2018-03-31T18:50:16.207Z,4.50
2018-03-31T18:54:50.048Z,5.07
2018-03-31T18:59:23.164Z,4.90
2018-03-31T19:03:55.942Z,5.07
2018-03-31T19:08:28.925Z,4.33
2018-03-31T19:13:02.541Z,8.60
2018-03-31T19:17:35.474Z,10.63
2018-03-31T19:22:09.500Z,8.97
2018-03-31T19:26:42.362Z,18.27
2018-03-31T19:31:16.606Z,10.10
2018-03-31T19:35:55.949Z,12.87
2018-03-31T19:40:29.662Z,11.40
2018-03-31T19:45:03.702Z,15.87
2018-03-31T19:49:37.302Z,12.33
2018-03-31T19:54:10.977Z,12.57
2018-03-31T19:58:43.926Z,10.33
2018-03-31T20:03:16.748Z,7.23
2018-03-31T20:07:49.506Z,7.17
2018-03-31T20:12:22.422Z,14.97
2018-03-31T20:16:55.218Z,8.80
2018-03-31T20:21:28.748Z,10.37
2018-03-31T20:26:01.520Z,11.83
2018-03-31T20:30:35.142Z,5.07
2018-03-31T20:35:08.720Z,3.93
2018-03-31T20:39:41.454Z,4.30
2018-03-31T20:44:15.100Z,3.80
2018-03-31T20:48:48.029Z,3.93
2018-03-31T20:53:20.814Z,3.80
2018-03-31T20:57:54.024Z,6.37
2018-03-31T21:02:26.796Z,6.40
2018-03-31T21:06:59.514Z,7.63
2018-03-31T21:11:32.281Z,6.40
2018-03-31T21:16:05.076Z,8.50
2018-03-31T21:20:37.870Z,7.43
2018-03-31T21:25:10.623Z,6.77
2018-03-31T21:29:44.272Z,5.40
2018-03-31T21:34:17.964Z,5.50
2018-03-31T21:38:50.748Z,4.70
2018-03-31T21:43:23.527Z,5.83
2018-03-31T21:47:56.299Z,7.00
2018-03-31T21:52:29.101Z,10.13
2018-03-31T21:57:01.881Z,6.40
2018-03-31T22:01:35.404Z,5.10
2018-03-31T22:06:08.284Z,5.27
2018-03-31T22:10:41.815Z,4.57
2018-03-31T22:15:20.342Z,5.17
2018-03-31T22:19:53.942Z,4.97
2018-03-31T22:24:27.489Z,5.30
2018-03-31T22:29:00.244Z,6.10
2018-03-31T22:33:33.060Z,5.87
2018-03-31T22:38:06.669Z,7.20
2018-03-31T22:42:40.194Z,5.60
2018-03-31T22:47:13.822Z,12.60
2018-03-31T22:51:46.603Z,6.37
2018-03-31T22:56:20.322Z,6.43
2018-03-31T23:00:53.151Z,4.03
2018-03-31T23:05:26.261Z,4.50
2018-03-31T23:09:59.031Z,3.70
2018-03-31T23:14:31.812Z,3.80
2018-03-31T23:19:05.444Z,3.80
2018-03-31T23:23:38.209Z,3.23
2018-03-31T23:28:10.936Z,3.07
2018-03-31T23:32:43.702Z,3.40
2018-03-31T23:37:16.631Z,3.37
2018-03-31T23:41:49.379Z,3.57
2018-03-31T23:46:22.137Z,5.30
2018-03-31T23:50:54.913Z,8.00
2018-03-31T23:55:29.445Z,6.50
